createdAt,value
2022-08-17T00:02:26.651Z,6.70
2022-08-17T00:05:40.303Z,8.23
2022-08-17T00:09:08.099Z,8.02
2022-08-17T00:12:40.387Z,7.40
2022-08-17T00:15:38.691Z,7.57
2022-08-17T00:19:01.182Z,7.93
2022-08-17T00:22:32.279Z,6.80
2022-08-17T00:25:33.739Z,7.20
2022-08-17T00:28:40.136Z,6.50
2022-08-17T00:31:44.557Z,6.95
2022-08-17T00:34:49.679Z,8.00
2022-08-17T00:37:55.150Z,7.97
2022-08-17T00:41:17.641Z,8.93
2022-08-17T00:47:28.554Z,5.93
2022-08-17T00:50:33.541Z,8.32
2022-08-17T00:53:44.699Z,7.93
2022-08-17T00:56:58.868Z,7.13
2022-08-17T01:00:37.162Z,9.20
2022-08-17T01:03:44.000Z,6.75
2022-08-17T01:06:49.795Z,6.78
2022-08-17T01:09:55.064Z,7.28
2022-08-17T01:13:02.512Z,6.88
2022-08-17T01:16:17.888Z,7.07
2022-08-17T01:19:28.874Z,8.73
2022-08-17T01:22:33.745Z,7.28
2022-08-17T01:25:38.731Z,7.70
2022-08-17T01:28:55.168Z,7.03
2022-08-17T01:32:05.856Z,7.38
2022-08-17T01:35:10.725Z,7.68
2022-08-17T01:38:15.171Z,7.53
2022-08-17T01:41:22.637Z,8.20
2022-08-17T01:44:27.673Z,9.07
2022-08-17T01:47:32.507Z,7.63
2022-08-17T01:50:45.149Z,8.40
2022-08-17T01:53:57.462Z,7.18
2022-08-17T01:57:02.631Z,7.45
2022-08-17T02:00:10.685Z,7.93
2022-08-17T02:03:15.190Z,8.32
2022-08-17T02:06:27.875Z,7.22
2022-08-17T02:09:33.239Z,8.90
2022-08-17T02:12:39.876Z,8.57
2022-08-17T02:15:44.880Z,8.13
2022-08-17T02:18:49.737Z,8.43
2022-08-17T02:21:54.964Z,8.27
2022-08-17T02:25:02.307Z,7.85
2022-08-17T02:28:08.152Z,10.73
2022-08-17T02:31:13.599Z,9.27
2022-08-17T02:34:18.561Z,9.30
2022-08-17T02:37:24.056Z,9.40
2022-08-17T02:40:35.865Z,9.15
2022-08-17T02:43:43.706Z,8.80
2022-08-17T02:46:51.308Z,8.00
2022-08-17T02:49:56.292Z,8.80
2022-08-17T02:53:02.498Z,9.70
2022-08-17T02:56:07.759Z,9.73
2022-08-17T02:59:12.361Z,9.45
2022-08-17T03:02:17.054Z,10.52
2022-08-17T03:05:25.459Z,9.32
2022-08-17T03:08:30.643Z,8.57
2022-08-17T03:11:35.671Z,8.27
2022-08-17T03:14:42.183Z,8.98
2022-08-17T03:17:47.122Z,8.27
2022-08-17T03:20:56.071Z,8.73
2022-08-17T03:24:00.488Z,8.73
2022-08-17T03:27:04.928Z,7.95
2022-08-17T03:30:11.281Z,8.88
2022-08-17T03:33:16.904Z,8.43
2022-08-17T03:36:21.634Z,9.68
2022-08-17T03:39:26.284Z,8.85
2022-08-17T03:42:31.986Z,7.88
2022-08-17T03:45:56.686Z,9.35
2022-08-17T03:52:42.597Z,8.70
2022-08-17T03:56:05.879Z,7.68
2022-08-17T03:59:22.694Z,8.15
2022-08-17T04:02:33.686Z,8.35
2022-08-17T04:05:38.566Z,9.15
2022-08-17T04:08:44.183Z,7.90
2022-08-17T04:11:48.865Z,7.88
2022-08-17T04:14:55.022Z,8.50
2022-08-17T04:18:00.315Z,8.90
2022-08-17T04:21:08.306Z,7.30
2022-08-17T04:24:13.297Z,8.70
2022-08-17T04:27:18.103Z,7.93
2022-08-17T04:30:23.176Z,8.23
2022-08-17T04:33:30.016Z,9.02
2022-08-17T04:36:34.723Z,7.55
2022-08-17T04:39:39.449Z,7.75
2022-08-17T04:42:44.258Z,8.43
2022-08-17T04:45:57.129Z,8.57
2022-08-17T04:49:07.740Z,7.43
2022-08-17T04:52:29.853Z,7.43
2022-08-17T04:55:37.145Z,7.00
2022-08-17T04:58:47.908Z,8.48
2022-08-17T05:01:54.776Z,6.80
2022-08-17T05:04:59.198Z,7.72
2022-08-17T05:08:06.945Z,7.55
2022-08-17T05:11:11.639Z,7.22
2022-08-17T05:14:16.424Z,7.43
2022-08-17T05:17:21.149Z,7.30
2022-08-17T05:20:27.815Z,6.55
2022-08-17T05:23:41.642Z,8.50
2022-08-17T05:26:47.410Z,9.18
2022-08-17T05:29:54.185Z,6.43
2022-08-17T05:33:17.436Z,6.35
2022-08-17T05:36:43.331Z,6.40
2022-08-17T05:39:47.144Z,7.10
2022-08-17T05:43:09.709Z,6.75
2022-08-17T05:46:27.520Z,7.03
2022-08-17T05:49:33.362Z,7.57
2022-08-17T05:52:58.714Z,7.38
2022-08-17T05:56:58.705Z,7.32
2022-08-17T06:00:14.901Z,7.65
2022-08-17T06:03:48.662Z,7.10
2022-08-17T06:07:05.748Z,7.35
2022-08-17T06:10:30.309Z,8.65
2022-08-17T06:14:05.212Z,8.20
2022-08-17T06:17:18.693Z,7.15
2022-08-17T06:20:25.986Z,8.02
2022-08-17T06:23:48.543Z,8.55
2022-08-17T06:27:07.659Z,8.20
2022-08-17T06:30:27.657Z,8.48
2022-08-17T06:33:37.371Z,8.55
2022-08-17T06:37:18.931Z,7.93
2022-08-17T06:40:55.640Z,7.85
2022-08-17T06:44:06.378Z,8.60
2022-08-17T06:47:29.372Z,7.72
2022-08-17T06:50:46.566Z,8.35
2022-08-17T06:54:05.964Z,8.82
2022-08-17T06:57:25.998Z,8.77
2022-08-17T07:00:41.910Z,8.75
2022-08-17T07:04:11.784Z,8.77
2022-08-17T07:07:38.425Z,8.02
2022-08-17T07:10:57.505Z,8.32
2022-08-17T07:14:36.525Z,8.60
2022-08-17T07:17:47.335Z,8.88
2022-08-17T07:21:02.809Z,7.82
2022-08-17T07:24:29.967Z,8.55
2022-08-17T07:27:43.131Z,8.35
2022-08-17T07:30:53.761Z,9.03
2022-08-17T07:34:14.483Z,9.73
2022-08-17T07:37:19.581Z,9.38
2022-08-17T07:40:30.679Z,8.20
2022-08-17T07:43:41.020Z,10.18
2022-08-17T07:47:12.363Z,9.85
2022-08-17T07:50:29.458Z,9.13
2022-08-17T07:53:34.612Z,9.15
2022-08-17T07:56:52.391Z,9.60
2022-08-17T07:59:59.877Z,8.68
2022-08-17T08:03:29.398Z,9.82
2022-08-17T08:06:37.933Z,9.23
2022-08-17T08:09:59.845Z,7.80
2022-08-17T08:13:33.531Z,10.32
2022-08-17T08:16:38.006Z,9.05
2022-08-17T08:19:42.792Z,8.93
2022-08-17T08:22:56.021Z,9.10
2022-08-17T08:26:37.044Z,8.48
2022-08-17T08:29:50.590Z,8.68
2022-08-17T08:33:17.191Z,8.00
2022-08-17T08:37:13.065Z,7.97
2022-08-17T08:40:39.713Z,7.15
2022-08-17T08:44:19.719Z,7.65
2022-08-17T08:47:52.277Z,7.63
2022-08-17T08:51:31.440Z,7.50
2022-08-17T08:55:10.273Z,7.57
2022-08-17T08:58:31.943Z,7.55
2022-08-17T09:02:38.747Z,6.85
2022-08-17T09:06:02.964Z,6.57
2022-08-17T09:09:37.044Z,6.88
2022-08-17T09:12:52.445Z,6.50
2022-08-17T09:16:30.797Z,5.78
2022-08-17T09:19:38.179Z,6.40
2022-08-17T09:22:48.703Z,6.10
2022-08-17T09:26:03.694Z,5.90
2022-08-17T09:29:14.324Z,6.03
2022-08-17T09:32:29.526Z,5.90
2022-08-17T09:35:44.333Z,6.47
2022-08-17T09:39:13.667Z,7.03
2022-08-17T09:42:40.125Z,5.88
2022-08-17T09:45:57.343Z,7.05
2022-08-17T09:49:58.721Z,6.78
2022-08-17T09:53:03.947Z,8.00
2022-08-17T09:56:27.339Z,8.00
2022-08-17T10:00:08.339Z,7.75
2022-08-17T10:04:02.656Z,7.28
2022-08-17T10:07:40.439Z,8.77
2022-08-17T10:11:08.327Z,8.20
2022-08-17T10:14:58.372Z,8.52
2022-08-17T10:18:52.267Z,6.53
2022-08-17T10:22:34.693Z,7.78
2022-08-17T10:26:12.946Z,7.27
2022-08-17T10:29:48.462Z,8.50
2022-08-17T10:32:59.530Z,6.80
2022-08-17T10:36:17.707Z,8.52
2022-08-17T10:39:57.522Z,9.07
2022-08-17T10:44:35.404Z,8.63
2022-08-17T10:47:19.414Z,7.00
2022-08-17T10:51:00.108Z,9.32
2022-08-17T10:54:24.817Z,7.63
2022-08-17T10:57:39.570Z,7.22
2022-08-17T11:00:56.433Z,7.68
2022-08-17T11:04:21.245Z,7.45
2022-08-17T11:07:55.175Z,7.07
2022-08-17T11:11:50.141Z,8.05
2022-08-17T11:15:27.698Z,8.30
2022-08-17T11:19:22.014Z,7.30
2022-08-17T11:22:59.120Z,7.40
2022-08-17T11:26:19.251Z,7.25
2022-08-17T11:29:30.808Z,7.85
2022-08-17T11:32:53.047Z,7.15
2022-08-17T11:36:40.413Z,7.05
2022-08-17T11:40:18.249Z,7.57
2022-08-17T11:43:56.320Z,7.18
2022-08-17T11:48:23.617Z,6.63
2022-08-17T11:51:42.164Z,6.82
2022-08-17T11:54:48.877Z,6.80
2022-08-17T11:58:06.428Z,7.63
2022-08-17T12:01:33.567Z,7.25
2022-08-17T12:04:58.481Z,7.82
2022-08-17T12:08:21.757Z,7.57
2022-08-17T12:11:55.125Z,7.90
2022-08-17T12:15:11.927Z,8.50
2022-08-17T12:18:37.839Z,8.38
2022-08-17T12:22:03.343Z,6.75
2022-08-17T12:25:22.130Z,7.38
2022-08-17T12:28:35.837Z,8.10
2022-08-17T12:31:51.293Z,7.78
2022-08-17T12:34:56.381Z,8.02
2022-08-17T12:38:06.466Z,8.20
2022-08-17T12:41:42.244Z,8.55
2022-08-17T12:44:50.572Z,7.13
2022-08-17T12:48:07.837Z,7.70
2022-08-17T12:51:13.060Z,7.68
2022-08-17T12:54:31.613Z,8.65
2022-08-17T12:57:41.236Z,7.35
2022-08-17T13:01:11.073Z,9.32
2022-08-17T13:04:16.475Z,9.23
2022-08-17T13:07:36.740Z,7.53
2022-08-17T13:10:41.593Z,8.20
2022-08-17T13:13:56.505Z,8.05
2022-08-17T13:17:06.291Z,8.52
2022-08-17T13:20:15.144Z,9.00
2022-08-17T13:23:21.184Z,7.72
2022-08-17T13:26:41.569Z,8.05
2022-08-17T13:29:51.147Z,9.63
2022-08-17T13:32:58.596Z,7.93
2022-08-17T13:36:10.095Z,9.32
2022-08-17T13:39:25.410Z,9.07
2022-08-17T13:42:52.986Z,9.10
2022-08-17T13:46:18.686Z,8.70
2022-08-17T13:49:23.939Z,8.32
2022-08-17T13:52:43.553Z,9.13
2022-08-17T13:55:53.807Z,9.05
2022-08-17T13:59:09.764Z,9.05
2022-08-17T14:02:19.840Z,9.32
2022-08-17T14:05:25.934Z,9.85
2022-08-17T14:08:30.840Z,9.18
2022-08-17T14:11:35.623Z,10.43
2022-08-17T14:14:43.002Z,9.88
2022-08-17T14:17:49.567Z,9.57
2022-08-17T14:20:56.725Z,9.63
2022-08-17T14:24:01.156Z,10.25
2022-08-17T14:27:12.001Z,9.68
2022-08-17T14:30:17.579Z,10.35
2022-08-17T14:33:24.808Z,10.18
2022-08-17T14:36:31.268Z,10.02
2022-08-17T14:39:35.657Z,9.95
2022-08-17T14:42:44.334Z,10.82
2022-08-17T14:45:51.903Z,10.38
2022-08-17T14:48:57.499Z,10.20
2022-08-17T14:52:03.069Z,11.23
2022-08-17T14:55:09.318Z,10.55
2022-08-17T14:58:14.088Z,10.88
2022-08-17T15:01:20.851Z,11.05
2022-08-17T15:04:25.119Z,10.38
2022-08-17T15:07:30.848Z,10.43
2022-08-17T15:10:35.999Z,10.45
2022-08-17T15:13:52.424Z,11.32
2022-08-17T15:16:57.773Z,10.85
2022-08-17T15:20:02.843Z,11.60
2022-08-17T15:23:09.512Z,10.13
2022-08-17T15:26:14.061Z,11.10
2022-08-17T15:29:18.615Z,10.25
2022-08-17T15:32:32.073Z,11.25
2022-08-17T15:35:37.387Z,10.65
2022-08-17T15:38:44.537Z,11.45
2022-08-17T15:41:58.413Z,10.77
2022-08-17T15:45:13.593Z,11.00
2022-08-17T15:48:20.398Z,9.90
2022-08-17T15:51:29.424Z,9.95
2022-08-17T15:54:34.629Z,10.38
2022-08-17T15:57:40.849Z,9.40
2022-08-17T16:00:53.468Z,9.45
2022-08-17T16:04:27.000Z,8.55
2022-08-17T16:07:36.324Z,9.60
2022-08-17T16:10:41.005Z,9.38
2022-08-17T16:13:47.421Z,9.40
2022-08-17T16:16:59.660Z,8.68
2022-08-17T16:20:05.308Z,9.48
2022-08-17T16:23:18.535Z,9.75
2022-08-17T16:26:25.521Z,9.00
2022-08-17T16:29:30.487Z,9.63
2022-08-17T16:32:34.931Z,8.98
2022-08-17T16:35:39.577Z,8.55
2022-08-17T16:38:44.679Z,8.90
2022-08-17T16:41:50.312Z,8.85
2022-08-17T16:45:01.265Z,9.27
2022-08-17T16:48:08.463Z,8.75
2022-08-17T16:51:12.684Z,9.13
2022-08-17T16:54:17.787Z,8.80
2022-08-17T16:57:24.290Z,10.48
2022-08-17T17:00:29.962Z,9.48
2022-08-17T17:03:37.316Z,9.23
2022-08-17T17:07:34.017Z,9.55
2022-08-17T17:10:55.862Z,10.07
2022-08-17T17:14:08.468Z,9.68
2022-08-17T17:17:32.633Z,11.20
2022-08-17T17:20:52.301Z,9.65
2022-08-17T17:24:03.057Z,9.60
2022-08-17T17:28:08.048Z,10.07
2022-08-17T17:31:25.368Z,8.85
2022-08-17T17:34:34.738Z,9.50
2022-08-17T17:37:44.349Z,7.97
2022-08-17T17:40:54.954Z,7.30
2022-08-17T17:44:13.065Z,7.53
2022-08-17T17:47:23.061Z,6.00
2022-08-17T17:50:57.810Z,4.70
2022-08-17T17:54:43.435Z,4.30
2022-08-17T17:58:24.885Z,4.07
2022-08-17T18:02:08.526Z,3.53
2022-08-17T18:05:50.125Z,2.92
2022-08-17T18:09:27.511Z,3.17
2022-08-17T18:13:14.334Z,2.75
2022-08-17T18:16:19.324Z,3.20
2022-08-17T18:19:28.110Z,3.33
2022-08-17T18:22:32.750Z,3.83
2022-08-17T18:25:45.963Z,3.65
2022-08-17T18:28:51.241Z,3.20
2022-08-17T18:32:23.700Z,3.53
2022-08-17T18:35:32.611Z,3.15
2022-08-17T18:38:43.233Z,3.53
2022-08-17T18:41:52.513Z,3.25
2022-08-17T18:44:57.071Z,2.72
2022-08-17T18:48:02.549Z,3.90
2022-08-17T18:51:40.966Z,3.00
2022-08-17T18:55:13.814Z,3.08
2022-08-17T18:58:24.503Z,3.42
2022-08-17T19:01:53.700Z,3.55
2022-08-17T19:05:27.203Z,3.13
2022-08-17T19:08:32.047Z,3.92
2022-08-17T19:11:37.224Z,2.95
2022-08-17T19:14:43.866Z,3.00
2022-08-17T19:18:15.079Z,5.30
2022-08-17T19:21:56.248Z,3.63
2022-08-17T19:25:17.554Z,3.50
2022-08-17T19:28:32.692Z,3.70
2022-08-17T19:31:37.516Z,3.88
2022-08-17T19:34:44.517Z,3.72
2022-08-17T19:38:03.578Z,3.70
2022-08-17T19:41:31.794Z,3.80
2022-08-17T19:51:09.175Z,3.33
2022-08-17T19:54:44.711Z,3.42
2022-08-17T19:58:02.871Z,3.67
2022-08-17T20:01:15.590Z,4.10
2022-08-17T20:04:44.714Z,3.88
2022-08-17T20:08:01.167Z,4.30
2022-08-17T20:11:20.233Z,4.18
2022-08-17T20:14:58.425Z,5.10
2022-08-17T20:18:10.926Z,3.95
2022-08-17T20:21:39.286Z,4.28
2022-08-17T20:25:17.928Z,5.03
2022-08-17T20:28:39.090Z,4.70
2022-08-17T20:31:57.433Z,5.75
2022-08-17T20:35:25.551Z,6.43
2022-08-17T20:38:42.163Z,7.53
2022-08-17T20:42:15.477Z,6.75
2022-08-17T20:45:24.229Z,6.70
2022-08-17T20:48:43.145Z,7.10
2022-08-17T20:52:08.384Z,5.75
2022-08-17T20:55:51.982Z,6.53
2022-08-17T20:59:00.641Z,6.63
2022-08-17T21:02:19.357Z,8.40
2022-08-17T21:05:52.690Z,8.05
2022-08-17T21:09:15.827Z,8.90
2022-08-17T21:12:48.004Z,9.20
2022-08-17T21:16:32.499Z,10.52
2022-08-17T21:24:11.871Z,7.18
2022-08-17T21:28:12.254Z,7.45
2022-08-17T21:31:46.003Z,7.60
2022-08-17T21:35:07.522Z,8.02
2022-08-17T21:38:15.376Z,8.85
2022-08-17T21:41:22.325Z,10.85
2022-08-17T21:44:37.968Z,9.80
2022-08-17T21:47:50.800Z,9.85
2022-08-17T21:51:19.158Z,10.30
2022-08-17T21:54:35.636Z,10.75
2022-08-17T21:57:53.035Z,11.15
2022-08-17T22:01:28.378Z,10.57
2022-08-17T22:04:39.999Z,11.05
2022-08-17T22:07:50.613Z,10.52
2022-08-17T22:11:02.426Z,10.40
2022-08-17T22:14:27.394Z,10.57
2022-08-17T22:17:52.501Z,10.88
2022-08-17T22:21:02.872Z,10.40
2022-08-17T22:24:21.296Z,11.73
2022-08-17T22:27:54.511Z,11.18
2022-08-17T22:31:03.467Z,12.80
2022-08-17T22:34:14.068Z,10.40
2022-08-17T22:37:28.230Z,10.77
2022-08-17T22:40:34.513Z,10.23
2022-08-17T22:43:43.716Z,9.68
2022-08-17T22:47:11.330Z,10.35
2022-08-17T22:50:26.962Z,12.00
2022-08-17T22:53:50.104Z,11.27
2022-08-17T22:57:22.528Z,12.90
2022-08-17T23:00:41.695Z,12.85
2022-08-17T23:04:36.496Z,13.77
2022-08-17T23:07:48.843Z,12.13
2022-08-17T23:10:53.254Z,12.52
2022-08-17T23:13:58.134Z,12.98
2022-08-17T23:17:02.753Z,12.07
2022-08-17T23:20:12.600Z,12.25
2022-08-17T23:23:23.390Z,11.13
2022-08-17T23:26:29.926Z,12.45
2022-08-17T23:29:39.378Z,12.13
2022-08-17T23:32:53.623Z,11.07
2022-08-17T23:35:59.013Z,11.05
2022-08-17T23:39:06.245Z,12.00
2022-08-17T23:42:15.368Z,12.25
2022-08-17T23:45:20.701Z,12.60
2022-08-17T23:48:35.096Z,11.77
2022-08-17T23:51:42.719Z,12.73
2022-08-17T23:54:48.577Z,11.63
2022-08-17T23:57:53.059Z,10.68
